Time;durP1;ratioP1;P1;durP2;ratioP2;P2;SDS_P1;SDS_P2;PMS_P1;PMS_P2;Temp;Humidity;BMP_temperature;BMP_pressure;BME280_temperature;BME280_humidity;BME280_pressure;Samples;Min_cycle;Max_cycle;Signal;HPM_P1;HPM_P2
2021/12/28 00:01:46;;;;;;;92.73;48.40;;;;;;;5.64;100.00;98827.41;5088603;28;20202;-72
2021/12/28 00:04:13;;;;;;;93.23;48.13;;;;;;;5.73;100.00;98857.75;5088645;28;20203;-71
2021/12/28 00:06:41;;;;;;;84.73;47.83;;;;;;;5.68;100.00;98857.00;5088646;28;20209;-72
2021/12/28 00:09:09;;;;;;;91.57;46.97;;;;;;;5.63;100.00;98857.09;5088548;28;20533;-72
2021/12/28 00:11:36;;;;;;;86.13;45.87;;;;;;;5.59;100.00;98859.72;5088645;28;20644;-71
2021/12/28 00:14:04;;;;;;;91.27;47.63;;;;;;;5.60;100.00;98866.47;5090250;28;20202;-72
2021/12/28 00:17:58;;;;;;;83.13;47.00;;;;;;;5.55;100.00;98873.38;5090448;28;20237;-72
2021/12/28 00:19:20;;;;;;;76.67;42.93;;;;;;;5.45;100.00;98877.78;5089301;28;20191;-73
2021/12/28 00:21:48;;;;;;;90.60;45.30;;;;;;;5.42;100.00;98877.84;5090449;28;20214;-72
2021/12/28 00:24:15;;;;;;;78.13;43.30;;;;;;;5.28;100.00;98865.34;5090375;28;20210;-72
2021/12/28 00:26:42;;;;;;;83.37;44.53;;;;;;;5.27;100.00;98878.91;5090535;28;20702;-71
2021/12/28 00:29:09;;;;;;;77.40;43.83;;;;;;;5.15;100.00;98856.28;5090067;28;20576;-72
2021/12/28 00:31:36;;;;;;;79.33;42.50;;;;;;;5.07;100.00;98860.63;5090577;28;20210;-72
2021/12/28 00:34:03;;;;;;;80.07;42.93;;;;;;;5.04;100.00;98865.75;5090160;28;20659;-72
2021/12/28 00:36:30;;;;;;;75.77;42.17;;;;;;;5.10;100.00;98880.94;5090092;28;20219;-72
2021/12/28 00:39:00;;;;;;;75.57;40.77;;;;;;;4.98;100.00;98870.94;5089908;28;20666;-72
2021/12/28 00:41:27;;;;;;;71.47;40.33;;;;;;;5.05;100.00;98879.31;5089462;28;20200;-72
2021/12/28 00:43:54;;;;;;;75.07;40.37;;;;;;;5.03;100.00;98879.34;5088599;28;20203;-72
2021/12/28 00:46:21;;;;;;;80.67;41.20;;;;;;;5.03;100.00;98873.44;5090059;28;20205;-72
2021/12/28 00:48:48;;;;;;;80.67;40.67;;;;;;;5.00;100.00;98879.41;5090320;28;20210;-72
2021/12/28 00:51:16;;;;;;;69.57;38.67;;;;;;;4.93;100.00;98869.34;5089740;28;20202;-73
2021/12/28 00:53:43;;;;;;;69.47;38.93;;;;;;;4.93;100.00;98882.91;5090135;28;20203;-72
2021/12/28 00:56:11;;;;;;;74.00;40.97;;;;;;;4.82;100.00;98863.59;5089642;28;20203;-72
2021/12/28 00:58:38;;;;;;;81.17;40.40;;;;;;;4.91;100.00;98887.13;5090220;28;20658;-72
2021/12/28 01:01:06;;;;;;;76.03;40.57;;;;;;;4.87;100.00;98872.00;5089807;28;20210;-72
2021/12/28 01:03:37;;;;;;;79.73;41.73;;;;;;;4.85;100.00;98861.84;5089342;28;20191;-72
2021/12/28 01:06:05;;;;;;;76.73;40.37;;;;;;;4.96;100.00;98872.69;5089781;28;20273;-72
2021/12/28 01:08:32;;;;;;;72.83;39.77;;;;;;;4.97;100.00;98874.38;5090039;28;20219;-72
2021/12/28 01:11:00;;;;;;;71.37;40.90;;;;;;;4.98;100.00;98876.03;5089759;28;21738;-72
2021/12/28 01:13:28;;;;;;;77.93;41.37;;;;;;;5.00;100.00;98871.78;5089985;28;20207;-71
2021/12/28 01:15:55;;;;;;;70.83;40.90;;;;;;;5.03;100.00;98874.28;5089914;28;20202;-72
2021/12/28 01:18:23;;;;;;;76.73;41.80;;;;;;;5.04;100.00;98875.91;5089688;28;20191;-72
2021/12/28 01:20:51;;;;;;;80.17;39.30;;;;;;;5.02;100.00;98876.81;5089914;28;20195;-72
2021/12/28 01:23:19;;;;;;;86.27;41.83;;;;;;;5.01;100.00;98878.50;5089135;28;20222;-72
2021/12/28 01:25:46;;;;;;;72.17;38.80;;;;;;;4.98;100.00;98875.19;5090141;28;20203;-72
2021/12/28 01:28:13;;;;;;;67.90;38.60;;;;;;;4.95;100.00;98872.69;5089396;28;20221;-71
2021/12/28 01:30:42;;;;;;;70.90;39.30;;;;;;;4.89;100.00;98858.41;5090038;28;20195;-72
2021/12/28 01:33:09;;;;;;;66.43;39.73;;;;;;;4.95;100.00;98867.63;5089116;28;20196;-72
2021/12/28 01:35:37;;;;;;;65.83;39.23;;;;;;;4.93;100.00;98862.56;5089912;28;20199;-72
2021/12/28 01:38:05;;;;;;;73.17;40.97;;;;;;;4.89;100.00;98866.03;5088668;28;20195;-72
2021/12/28 01:40:39;;;;;;;74.23;40.53;;;;;;;4.89;100.00;98870.25;5088606;28;20210;-72
2021/12/28 01:43:11;;;;;;;68.33;37.67;;;;;;;4.88;100.00;98874.50;5089473;28;20214;-72
2021/12/28 01:45:43;;;;;;;72.23;39.73;;;;;;;4.85;100.00;98863.56;5088166;28;20222;-72
2021/12/28 01:48:13;;;;;;;74.47;38.93;;;;;;;4.92;100.00;98871.03;5087252;28;20211;-72
2021/12/28 01:50:40;;;;;;;65.17;38.07;;;;;;;4.94;100.00;98858.34;5087574;28;20192;-72
2021/12/28 01:53:09;;;;;;;67.43;38.40;;;;;;;4.93;100.00;98867.66;5087120;28;20200;-68
2021/12/28 01:55:38;;;;;;;63.00;35.43;;;;;;;4.93;100.00;98856.66;5087629;28;20580;-69
2021/12/28 01:58:05;;;;;;;64.00;36.07;;;;;;;4.98;100.00;98865.88;5087553;28;20187;-69
2021/12/28 02:00:32;;;;;;;67.10;38.07;;;;;;;4.99;100.00;98867.56;5087001;28;20199;-69
2021/12/28 02:03:06;;;;;;;70.00;37.03;;;;;;;5.03;100.00;98864.09;5089163;28;20722;-69
2021/12/28 02:05:33;;;;;;;69.70;36.00;;;;;;;5.04;100.00;98860.69;5091727;28;20202;-69
2021/12/28 02:08:00;;;;;;;69.80;35.30;;;;;;;5.08;100.00;98856.41;5092215;28;20690;-69
2021/12/28 02:10:27;;;;;;;60.40;36.13;;;;;;;5.08;100.00;98857.22;5088537;28;20845;-68
2021/12/28 02:12:54;;;;;;;58.27;34.80;;;;;;;5.08;100.00;98866.56;5091558;28;20202;-68
2021/12/28 02:15:21;;;;;;;61.73;32.60;;;;;;;5.08;100.00;98858.94;5091085;28;20199;-68
2021/12/28 02:17:48;;;;;;;65.07;35.20;;;;;;;4.96;100.00;98859.16;5091362;28;20253;-69
2021/12/28 02:20:19;;;;;;;67.13;37.03;;;;;;;4.81;100.00;98847.53;5091474;28;20223;-69
2021/12/28 02:22:46;;;;;;;64.40;35.57;;;;;;;4.76;100.00;98834.06;5091117;28;20210;-69
2021/12/28 02:25:14;;;;;;;62.77;36.77;;;;;;;4.83;100.00;98858.50;5092787;28;20611;-69
2021/12/28 02:27:41;;;;;;;57.93;36.07;;;;;;;4.84;100.00;98854.28;5092781;28;20203;-69
2021/12/28 02:30:12;;;;;;;63.77;35.47;;;;;;;4.81;100.00;98854.31;5092413;28;20211;-72
2021/12/28 02:32:40;;;;;;;56.90;34.43;;;;;;;4.87;100.00;98846.59;5092629;28;20206;-72
2021/12/28 02:35:09;;;;;;;66.00;34.83;;;;;;;4.91;100.00;98849.03;5092394;28;20195;-72
2021/12/28 02:37:38;;;;;;;60.80;33.77;;;;;;;4.94;100.00;98843.09;5092224;28;20203;-72
2021/12/28 02:40:09;;;;;;;60.10;33.73;;;;;;;4.96;100.00;98847.28;5091874;28;20199;-72
2021/12/28 02:42:36;;;;;;;53.60;33.47;;;;;;;5.03;100.00;98848.88;5091051;28;20195;-72
2021/12/28 02:45:09;;;;;;;54.87;31.87;;;;;;;5.07;100.00;98845.38;5092457;28;20213;-72
2021/12/28 02:47:36;;;;;;;53.63;31.93;;;;;;;5.11;100.00;98849.56;5092419;28;20257;-70
2021/12/28 02:50:05;;;;;;;53.40;31.20;;;;;;;5.11;100.00;98857.19;5092129;28;20246;-70
2021/12/28 02:52:36;;;;;;;51.73;31.37;;;;;;;5.12;100.00;98847.88;5090014;28;20211;-70
2021/12/28 02:55:05;;;;;;;53.33;31.07;;;;;;;5.12;100.00;98852.94;5090944;28;20199;-70
2021/12/28 02:57:33;;;;;;;53.17;30.80;;;;;;;5.09;100.00;98847.91;5089703;28;20598;-70
2021/12/28 02:59:59;;;;;;;53.57;32.07;;;;;;;5.09;100.00;98843.69;5092135;28;20245;-70
2021/12/28 03:02:27;;;;;;;54.20;31.73;;;;;;;5.09;100.00;98848.75;5092055;28;20210;-70
2021/12/28 03:05:03;;;;;;;55.07;32.67;;;;;;;5.11;100.00;98846.19;5092204;28;20203;-70
2021/12/28 03:07:31;;;;;;;50.10;32.40;;;;;;;5.10;100.00;98844.53;5091900;28;20200;-70
2021/12/28 03:09:58;;;;;;;57.80;34.70;;;;;;;4.99;100.00;98842.16;5091921;28;20219;-70
2021/12/28 03:12:33;;;;;;;52.73;32.40;;;;;;;4.97;100.00;98846.44;5092136;28;20587;-71
2021/12/28 03:15:00;;;;;;;60.80;33.03;;;;;;;4.99;100.00;98837.06;5090689;28;20198;-70
2021/12/28 03:17:26;;;;;;;50.60;31.90;;;;;;;5.00;100.00;98843.00;5091722;28;20203;-70
2021/12/28 03:19:53;;;;;;;52.67;31.10;;;;;;;4.99;100.00;98841.31;5091987;28;20200;-71
2021/12/28 03:22:20;;;;;;;65.70;33.63;;;;;;;4.99;100.00;98847.22;5091362;28;20203;-70
2021/12/28 03:24:47;;;;;;;64.10;34.00;;;;;;;4.92;100.00;98848.19;5091893;28;20199;-70
2021/12/28 03:27:14;;;;;;;69.53;38.77;;;;;;;4.85;100.00;98849.16;5091056;28;20199;-70
2021/12/28 03:29:42;;;;;;;62.63;36.53;;;;;;;4.89;100.00;98850.78;5091810;28;20215;-70
2021/12/28 03:32:10;;;;;;;61.17;36.97;;;;;;;4.87;100.00;98849.97;5090433;28;20199;-71
2021/12/28 03:34:36;;;;;;;64.23;34.97;;;;;;;4.88;100.00;98849.09;5091587;28;20286;-70
2021/12/28 03:37:04;;;;;;;65.20;35.40;;;;;;;4.88;100.00;98849.09;5090350;28;20207;-71
2021/12/28 03:39:31;;;;;;;61.73;36.00;;;;;;;4.77;100.00;98835.75;5090978;28;20213;-70
2021/12/28 03:41:57;;;;;;;60.33;34.37;;;;;;;4.82;100.00;98849.19;5091553;28;20282;-70
2021/12/28 03:44:24;;;;;;;67.93;34.37;;;;;;;4.63;100.00;98835.13;5091073;28;20260;-70
2021/12/28 03:46:53;;;;;;;56.10;33.30;;;;;;;4.72;100.00;98847.66;5091481;28;20210;-70
2021/12/28 03:49:20;;;;;;;55.90;34.63;;;;;;;4.69;100.00;98858.72;5090698;28;20219;-70
2021/12/28 03:51:47;;;;;;;59.77;34.07;;;;;;;4.64;100.00;98857.13;5090630;28;20202;-70
2021/12/28 03:54:14;;;;;;;64.60;35.63;;;;;;;4.67;100.00;98854.53;5090182;28;20203;-70
2021/12/28 03:56:41;;;;;;;62.10;36.20;;;;;;;4.67;100.00;98862.13;5088306;28;20191;-70
2021/12/28 03:59:08;;;;;;;57.57;33.57;;;;;;;4.61;100.00;98850.38;5088922;28;20223;-70
2021/12/28 04:01:35;;;;;;;63.27;34.50;;;;;;;4.52;100.00;98839.53;5088965;28;20693;-70
2021/12/28 04:04:03;;;;;;;64.77;35.37;;;;;;;4.66;100.00;98874.00;5089054;28;20214;-71
2021/12/28 04:06:31;;;;;;;57.77;34.90;;;;;;;4.52;100.00;98850.53;5088375;28;20210;-71
2021/12/28 04:09:00;;;;;;;60.77;32.70;;;;;;;4.59;100.00;98862.25;5089094;28;20631;-70
2021/12/28 04:11:27;;;;;;;61.10;34.27;;;;;;;4.57;100.00;98847.91;5088849;28;20296;-70
2021/12/28 04:13:56;;;;;;;89.50;41.67;;;;;;;4.66;100.00;98868.06;5089055;28;20213;-70
2021/12/28 04:16:23;;;;;;;87.77;42.33;;;;;;;4.55;100.00;98849.66;5088187;28;20241;-71
2021/12/28 04:18:51;;;;;;;83.03;42.30;;;;;;;4.62;100.00;98871.53;5087718;28;20205;-70
2021/12/28 04:21:19;;;;;;;84.77;44.77;;;;;;;4.60;100.00;98869.00;5088331;28;20195;-71
2021/12/28 04:23:47;;;;;;;77.57;41.63;;;;;;;4.48;100.00;98863.28;5088131;28;20201;-71
2021/12/28 04:26:14;;;;;;;74.60;39.20;;;;;;;4.51;100.00;98879.31;5088494;28;20202;-70
2021/12/28 04:28:41;;;;;;;56.77;33.37;;;;;;;4.41;100.00;98874.38;5089189;28;20199;-70
2021/12/28 04:31:09;;;;;;;53.00;29.40;;;;;;;4.43;100.00;98881.09;5090230;28;20308;-71
2021/12/28 04:33:37;;;;;;;47.83;30.30;;;;;;;4.43;100.00;98876.03;5089485;28;20203;-70
2021/12/28 04:36:07;;;;;;;47.30;28.90;;;;;;;4.41;100.00;98881.97;5090371;28;20751;-70
2021/12/28 04:38:37;;;;;;;49.97;28.87;;;;;;;4.40;100.00;98891.28;5090084;28;20598;-70
2021/12/28 04:41:05;;;;;;;42.63;26.13;;;;;;;4.33;100.00;98881.25;5090284;28;20226;-71
2021/12/28 04:43:33;;;;;;;43.87;26.43;;;;;;;4.42;100.00;98894.66;5090449;28;20195;-70
2021/12/28 04:46:00;;;;;;;46.37;26.57;;;;;;;4.38;100.00;98894.72;5090218;28;20199;-71
2021/12/28 04:48:27;;;;;;;38.73;24.47;;;;;;;4.24;100.00;98885.59;5090285;28;20210;-71
2021/12/28 04:50:54;;;;;;;40.50;25.97;;;;;;;4.33;100.00;98899.03;5090082;28;20222;-71
2021/12/28 04:53:21;;;;;;;39.33;24.60;;;;;;;4.30;100.00;98904.13;5089991;28;20201;-71
2021/12/28 04:55:51;;;;;;;38.17;23.27;;;;;;;4.18;100.00;98875.53;5088881;28;20226;-70
2021/12/28 04:58:18;;;;;;;39.70;24.00;;;;;;;4.24;100.00;98890.66;5090284;28;20571;-71
2021/12/28 05:00:47;;;;;;;45.33;24.30;;;;;;;4.13;100.00;98887.44;5090242;28;20199;-70
2021/12/28 05:03:15;;;;;;;41.80;24.90;;;;;;;4.14;100.00;98894.16;5090015;28;20187;-70
2021/12/28 05:05:44;;;;;;;43.67;25.63;;;;;;;3.95;100.00;98869.03;5090101;28;20199;-71
2021/12/28 05:08:11;;;;;;;41.23;23.83;;;;;;;4.10;100.00;98892.53;5089748;28;20191;-70
2021/12/28 05:10:38;;;;;;;37.53;23.73;;;;;;;4.11;100.00;98894.19;5090091;28;20223;-70
2021/12/28 05:13:07;;;;;;;46.63;25.83;;;;;;;4.12;100.00;98900.13;5089470;28;20199;-71
2021/12/28 05:15:34;;;;;;;39.23;24.33;;;;;;;4.06;100.00;98892.59;5090470;28;20694;-70
2021/12/28 05:18:01;;;;;;;44.30;26.07;;;;;;;4.09;100.00;98911.16;5090033;28;20218;-71
2021/12/28 05:20:28;;;;;;;39.73;24.43;;;;;;;4.08;100.00;98898.47;5089860;28;20195;-71
2021/12/28 05:22:55;;;;;;;38.20;24.80;;;;;;;4.06;100.00;98898.50;5089724;28;20203;-70
2021/12/28 05:25:22;;;;;;;39.43;24.77;;;;;;;4.00;100.00;98890.97;5089977;28;20574;-70
2021/12/28 05:27:49;;;;;;;47.17;27.57;;;;;;;3.97;100.00;98888.47;5090231;28;20203;-71
2021/12/28 05:30:18;;;;;;;43.57;26.77;;;;;;;3.99;100.00;98893.53;5088713;28;20219;-70
2021/12/28 05:32:44;;;;;;;45.00;25.30;;;;;;;3.97;100.00;98896.09;5089005;28;20290;-71
2021/12/28 05:35:12;;;;;;;40.73;25.80;;;;;;;4.00;100.00;98907.88;5089330;28;20203;-71
2021/12/28 05:37:39;;;;;;;46.97;26.60;;;;;;;3.96;100.00;98903.69;5090566;28;20693;-71
2021/12/28 05:40:09;;;;;;;46.93;27.40;;;;;;;3.91;100.00;98906.28;5093400;28;20188;-71
2021/12/28 05:42:36;;;;;;;46.27;26.60;;;;;;;3.91;100.00;98905.47;5093320;28;20199;-71
2021/12/28 05:45:04;;;;;;;45.87;25.83;;;;;;;3.85;100.00;98911.41;5093526;28;20196;-71
2021/12/28 05:47:32;;;;;;;47.73;25.50;;;;;;;3.84;100.00;98909.75;5093520;28;20198;-71
2021/12/28 05:49:59;;;;;;;53.80;26.37;;;;;;;3.82;100.00;98910.63;5093469;28;20212;-71
2021/12/28 05:52:26;;;;;;;40.40;25.47;;;;;;;3.81;100.00;98904.72;5093391;28;20201;-71
2021/12/28 05:54:53;;;;;;;42.53;25.47;;;;;;;3.80;100.00;98902.19;5092158;28;20198;-71
2021/12/28 05:57:20;;;;;;;39.47;25.17;;;;;;;3.86;100.00;98918.19;5093577;28;20697;-70
2021/12/28 05:59:47;;;;;;;44.83;25.40;;;;;;;3.87;100.00;98919.88;5092396;28;20674;-71
2021/12/28 06:02:14;;;;;;;42.30;25.97;;;;;;;3.86;100.00;98918.19;5091127;28;20579;-70
2021/12/28 06:04:42;;;;;;;41.27;26.13;;;;;;;3.88;100.00;98924.06;5089630;28;20196;-71
2021/12/28 06:07:09;;;;;;;49.53;28.50;;;;;;;3.90;100.00;98932.50;5086276;28;20264;-70
2021/12/28 06:09:36;;;;;;;57.37;33.60;;;;;;;3.81;100.00;98914.88;5090445;28;20219;-70
2021/12/28 06:12:03;;;;;;;54.80;30.73;;;;;;;3.89;100.00;98925.75;5091126;28;20218;-70
2021/12/28 06:14:30;;;;;;;50.63;28.57;;;;;;;3.85;100.00;98919.03;5090241;28;20586;-70
2021/12/28 06:16:57;;;;;;;55.40;31.47;;;;;;;3.80;100.00;98914.88;5092287;28;20218;-71
2021/12/28 06:19:24;;;;;;;46.70;27.70;;;;;;;3.81;100.00;98914.88;5092168;28;20206;-70
2021/12/28 06:21:54;;;;;;;40.90;25.23;;;;;;;3.83;100.00;98912.31;5092949;28;20192;-70
2021/12/28 06:24:20;;;;;;;35.03;23.37;;;;;;;3.80;100.00;98915.72;5091575;28;20205;-70
2021/12/28 06:26:47;;;;;;;32.73;21.37;;;;;;;3.84;100.00;98919.06;5092669;28;20206;-71
2021/12/28 06:29:15;;;;;;;30.37;21.33;;;;;;;3.94;100.00;98931.59;5091115;28;20206;-70
2021/12/28 06:31:42;;;;;;;31.33;21.07;;;;;;;3.90;100.00;98929.97;5092122;28;20203;-71
2021/12/28 06:34:09;;;;;;;23.83;18.13;;;;;;;3.84;100.00;98909.75;5092916;28;20659;-71
2021/12/28 06:36:37;;;;;;;26.63;17.47;;;;;;;3.92;100.00;98920.66;5092671;28;20576;-71
2021/12/28 06:39:06;;;;;;;28.13;18.33;;;;;;;3.93;100.00;98922.34;5092567;28;20195;-73
2021/12/28 06:41:33;;;;;;;22.90;16.90;;;;;;;3.92;100.00;98929.94;5091877;28;20201;-72
2021/12/28 06:44:00;;;;;;;22.27;17.07;;;;;;;3.85;100.00;98916.50;5092389;28;20199;-73
2021/12/28 06:46:26;;;;;;;25.57;16.80;;;;;;;3.94;100.00;98931.59;5092327;28;20928;-73
2021/12/28 06:48:53;;;;;;;28.83;19.20;;;;;;;3.94;100.00;98933.31;5091790;28;20300;-73
2021/12/28 06:51:20;;;;;;;32.17;19.73;;;;;;;3.98;100.00;98933.25;5091920;28;20226;-73
2021/12/28 06:53:47;;;;;;;26.40;18.53;;;;;;;4.03;100.00;98936.59;5088629;28;20207;-72
2021/12/28 06:56:16;;;;;;;28.97;18.83;;;;;;;4.06;100.00;98941.63;5089701;28;20199;-72
2021/12/28 06:58:43;;;;;;;30.23;19.60;;;;;;;4.09;100.00;98954.28;5090889;28;20203;-71
2021/12/28 07:01:09;;;;;;;42.50;24.63;;;;;;;4.12;100.00;98951.69;5090948;28;20195;-72
2021/12/28 07:03:37;;;;;;;57.60;30.30;;;;;;;4.14;100.00;98944.91;5091447;28;20598;-73
2021/12/28 07:06:06;;;;;;;47.07;27.73;;;;;;;4.15;100.00;98936.44;5091608;28;20203;-72
2021/12/28 07:08:34;;;;;;;45.43;28.00;;;;;;;4.17;100.00;98929.63;5089696;28;20203;-73
2021/12/28 07:11:00;;;;;;;40.87;26.80;;;;;;;4.24;100.00;98936.31;5089704;28;20635;-72
2021/12/28 07:13:29;;;;;;;45.43;27.87;;;;;;;4.31;100.00;98931.16;5090027;28;20215;-72
2021/12/28 07:15:56;;;;;;;41.97;26.80;;;;;;;4.35;100.00;98937.88;5090235;28;20290;-72
2021/12/28 07:18:22;;;;;;;39.20;23.47;;;;;;;4.39;100.00;98930.22;5091639;28;20683;-73
2021/12/28 07:20:49;;;;;;;30.83;21.57;;;;;;;4.47;100.00;98932.66;5091752;28;20207;-68
2021/12/28 07:23:17;;;;;;;25.77;18.63;;;;;;;4.49;100.00;98936.03;5089902;28;20206;-68
2021/12/28 07:25:45;;;;;;;29.37;19.67;;;;;;;4.48;100.00;98939.41;5088631;28;20583;-68
2021/12/28 07:28:12;;;;;;;28.00;19.07;;;;;;;4.58;100.00;98940.97;5087726;28;20208;-69
2021/12/28 07:30:41;;;;;;;25.57;19.03;;;;;;;4.65;100.00;98947.66;5090012;28;20215;-69
2021/12/28 07:33:08;;;;;;;32.13;19.33;;;;;;;4.63;100.00;98929.03;5089972;28;20202;-69
2021/12/28 07:35:35;;;;;;;33.40;21.20;;;;;;;4.77;100.00;98937.31;5087223;28;20726;-69
2021/12/28 07:38:02;;;;;;;33.10;21.17;;;;;;;4.80;100.00;98926.25;5086511;28;20290;-69
2021/12/28 07:40:29;;;;;;;27.63;20.10;;;;;;;4.90;100.00;98933.75;5084190;28;20192;-68
2021/12/28 07:42:56;;;;;;;32.23;20.73;;;;;;;4.94;100.00;98940.47;5090013;28;20298;-68
2021/12/28 07:45:23;;;;;;;25.90;18.17;;;;;;;4.88;100.00;98915.13;5086528;28;20207;-70
2021/12/28 07:47:52;;;;;;;30.07;20.03;;;;;;;5.00;100.00;98925.13;5089613;28;20590;-69
2021/12/28 07:50:20;;;;;;;26.60;20.67;;;;;;;5.10;100.00;98941.91;5089053;28;20246;-68
2021/12/28 07:52:48;;;;;;;28.90;19.73;;;;;;;5.15;100.00;98937.56;5089701;28;20202;-69
2021/12/28 07:55:16;;;;;;;26.53;19.47;;;;;;;5.25;100.00;98931.47;5088777;28;20245;-69
2021/12/28 07:57:43;;;;;;;34.30;21.17;;;;;;;5.30;100.00;98929.69;5090228;28;20223;-69
2021/12/28 08:00:13;;;;;;;33.17;22.70;;;;;;;5.42;100.00;98938.00;5088476;28;20620;-68
2021/12/28 08:02:42;;;;;;;33.90;22.80;;;;;;;5.48;100.00;98926.00;5088851;28;20671;-68
2021/12/28 08:05:12;;;;;;;35.93;23.47;;;;;;;5.60;100.00;98923.25;5089629;28;20198;-68
2021/12/28 08:07:39;;;;;;;36.73;23.80;;;;;;;5.80;100.00;98930.50;5089348;28;20207;-68
2021/12/28 08:10:07;;;;;;;33.90;23.43;;;;;;;5.81;100.00;98922.03;5088988;28;20648;-68
2021/12/28 08:12:35;;;;;;;38.13;22.90;;;;;;;5.97;100.00;98928.53;5088691;28;20208;-68
2021/12/28 08:15:03;;;;;;;32.57;20.17;;;;;;;6.08;100.00;98934.25;5089413;28;20210;-68
2021/12/28 08:17:30;;;;;;;34.97;22.47;;;;;;;6.18;100.00;98935.75;5088747;28;20204;-68
2021/12/28 08:19:57;;;;;;;33.13;21.33;;;;;;;6.30;100.00;98930.38;5088621;28;20205;-68
2021/12/28 08:22:26;;;;;;;32.73;21.70;;;;;;;6.44;100.00;98934.34;5088177;28;20221;-69
2021/12/28 08:24:54;;;;;;;34.17;21.70;;;;;;;6.55;100.00;98933.28;5087831;28;20286;-68
2021/12/28 08:27:21;;;;;;;33.87;20.67;;;;;;;6.68;100.00;98928.75;5089224;28;20199;-68
2021/12/28 08:29:48;;;;;;;29.13;18.60;;;;;;;6.78;100.00;98936.16;5089814;28;20639;-68
2021/12/28 08:32:15;;;;;;;33.53;19.00;;;;;;;6.78;100.00;98922.59;5088695;28;20210;-68
2021/12/28 08:34:42;;;;;;;32.37;18.63;;;;;;;6.97;100.00;98921.28;5088070;28;20195;-68
2021/12/28 08:37:11;;;;;;;27.33;20.30;;;;;;;7.11;100.00;98914.13;5089058;28;20560;-68
2021/12/28 08:39:40;;;;;;;34.73;22.70;;;;;;;7.18;100.00;98925.03;5088310;28;20647;-68
2021/12/28 08:42:07;;;;;;;39.50;23.27;;;;;;;7.29;100.00;98923.91;5087799;28;20230;-68
2021/12/28 08:44:34;;;;;;;35.57;21.53;;;;;;;7.39;100.00;98924.53;5088705;28;20211;-68
2021/12/28 08:47:01;;;;;;;28.30;20.70;;;;;;;7.46;100.00;98910.75;5089101;28;20217;-68
2021/12/28 08:49:28;;;;;;;37.40;20.60;;;;;;;7.58;100.00;98907.03;5089428;28;20204;-68
2021/12/28 08:51:56;;;;;;;31.30;20.30;;;;;;;7.70;100.00;98904.16;5090191;28;20706;-68
2021/12/28 08:54:23;;;;;;;24.93;17.67;;;;;;;7.78;100.00;98903.09;5087404;28;20671;-68
2021/12/28 08:56:52;;;;;;;26.00;18.43;;;;;;;7.90;100.00;98901.91;5090974;28;20223;-68
2021/12/28 08:59:19;;;;;;;26.33;18.23;;;;;;;8.03;100.00;98903.25;5090911;28;20616;-68
2021/12/28 09:01:48;;;;;;;28.23;18.67;;;;;;;8.15;100.00;98896.94;5090623;28;20740;-68
2021/12/28 09:04:15;;;;;;;28.47;18.83;;;;;;;8.27;100.00;98897.44;5090757;28;20195;-69
2021/12/28 09:06:42;;;;;;;27.07;19.67;;;;;;;8.35;100.00;98898.09;5089947;28;20202;-69
2021/12/28 09:09:09;;;;;;;28.50;18.93;;;;;;;8.45;100.00;98891.00;5089262;28;20252;-69
2021/12/28 09:11:36;;;;;;;29.73;19.50;;;;;;;8.69;100.00;98894.53;5091323;28;20227;-69
2021/12/28 09:14:05;;;;;;;27.83;19.33;;;;;;;8.67;100.00;98875.84;5094699;28;20195;-69
2021/12/28 09:16:32;;;;;;;22.10;17.60;;;;;;;8.92;100.00;98894.63;5093833;28;20191;-69
2021/12/28 09:18:58;;;;;;;27.50;17.20;;;;;;;8.95;100.00;98890.25;5087615;28;20210;-68
2021/12/28 09:21:26;;;;;;;24.07;16.47;;;;;;;9.16;100.00;98898.97;5089664;28;20202;-69
2021/12/28 09:23:53;;;;;;;24.37;17.17;;;;;;;9.31;100.00;98893.34;5090330;28;20207;-69
2021/12/28 09:26:20;;;;;;;22.23;15.90;;;;;;;9.41;100.00;98891.31;5092907;28;20203;-69
2021/12/28 09:28:46;;;;;;;16.33;14.67;;;;;;;9.46;100.00;98889.47;5093324;28;20282;-69
2021/12/28 09:31:15;;;;;;;21.93;15.10;;;;;;;9.57;100.00;98884.81;5092994;28;20225;-71
2021/12/28 09:33:42;;;;;;;18.20;14.20;;;;;;;9.62;100.00;98879.53;5091008;28;20347;-71
2021/12/28 09:36:14;;;;;;;17.63;14.83;;;;;;;9.74;100.00;98879.94;5092092;28;20199;-70
2021/12/28 09:38:42;;;;;;;20.27;15.00;;;;;;;9.80;100.00;98863.53;5093033;28;20218;-71
2021/12/28 09:41:09;;;;;;;18.77;16.17;;;;;;;9.86;100.00;98859.03;5093113;28;20203;-71
2021/12/28 09:43:38;;;;;;;19.80;15.97;;;;;;;10.00;100.00;98848.28;5090280;28;20701;-71
2021/12/28 09:46:05;;;;;;;18.53;14.83;;;;;;;10.17;100.00;98863.91;5088747;28;20200;-71
2021/12/28 09:48:34;;;;;;;20.23;14.13;;;;;;;10.30;100.00;98859.16;5091777;28;20229;-71
2021/12/28 09:51:02;;;;;;;19.63;13.97;;;;;;;10.32;100.00;98845.41;5092225;28;20215;-71
2021/12/28 09:53:29;;;;;;;18.40;13.80;;;;;;;10.45;100.00;98853.44;5092568;28;20192;-71
2021/12/28 09:55:56;;;;;;;17.90;13.03;;;;;;;10.37;100.00;98825.53;5090764;28;20222;-70
2021/12/28 09:58:23;;;;;;;18.93;14.43;;;;;;;10.51;100.00;98843.81;5092031;28;20593;-71
2021/12/28 10:00:50;;;;;;;16.10;14.30;;;;;;;10.63;100.00;98849.34;5088340;28;20199;-71
2021/12/28 10:03:19;;;;;;;20.43;15.70;;;;;;;10.60;100.00;98836.66;5091988;28;20278;-71
2021/12/28 10:05:48;;;;;;;23.93;17.13;;;;;;;10.81;100.00;98844.34;5087697;28;20218;-71
2021/12/28 10:08:15;;;;;;;18.23;14.47;;;;;;;10.91;100.00;98840.50;5088536;28;20206;-70
2021/12/28 10:10:47;;;;;;;16.30;14.47;;;;;;;11.03;100.00;98842.56;5089509;28;20680;-71
2021/12/28 10:13:19;;;;;;;16.77;14.27;;;;;;;11.15;100.00;98838.66;5090270;28;20215;-71
2021/12/28 10:15:51;;;;;;;24.47;15.70;;;;;;;11.33;100.00;98842.19;5090528;28;20200;-71
2021/12/28 10:18:18;;;;;;;19.30;14.60;;;;;;;11.39;100.00;98839.38;5090698;28;20613;-70
2021/12/28 10:20:50;;;;;;;17.80;14.87;;;;;;;11.46;100.00;98846.75;5088407;28;20626;-70
2021/12/28 10:23:19;;;;;;;17.80;14.37;;;;;;;11.53;100.00;98843.00;5084890;28;20243;-71
2021/12/28 10:25:48;;;;;;;18.10;14.57;;;;;;;11.62;100.00;98840.94;5083525;28;20947;-70
2021/12/28 10:28:20;;;;;;;21.23;15.27;;;;;;;11.71;100.00;98830.31;5089714;28;20290;-70
2021/12/28 10:30:49;;;;;;;20.67;15.13;;;;;;;11.74;100.00;98819.91;5086871;28;20306;-70
2021/12/28 10:33:18;;;;;;;21.10;14.97;;;;;;;11.87;100.00;98826.16;5087484;28;20292;-70
2021/12/28 10:35:47;;;;;;;18.23;14.73;;;;;;;11.86;100.00;98824.50;5085194;28;20286;-70
2021/12/28 10:38:18;;;;;;;15.80;14.13;;;;;;;11.91;100.00;98825.13;5090101;28;20203;-70
2021/12/28 10:40:50;;;;;;;19.33;14.17;;;;;;;11.95;100.00;98818.97;5092312;28;20253;-70
2021/12/28 10:43:19;;;;;;;16.33;14.33;;;;;;;11.93;100.00;98810.47;5092826;28;20199;-70
2021/12/28 10:45:48;;;;;;;22.23;13.83;;;;;;;12.00;100.00;98809.31;5091552;28;20199;-70
2021/12/28 10:48:17;;;;;;;18.80;14.90;;;;;;;12.11;100.00;98819.94;5092399;28;20214;-70
2021/12/28 10:50:47;;;;;;;16.87;14.20;;;;;;;12.15;100.00;98806.03;5092175;28;20234;-68
2021/12/28 10:53:20;;;;;;;20.60;14.47;;;;;;;12.13;100.00;98789.88;5092200;28;20227;-70
2021/12/28 10:55:50;;;;;;;19.77;14.57;;;;;;;12.18;100.00;98797.38;5090964;28;20231;-70
2021/12/28 10:58:35;;;;;;;16.70;13.93;;;;;;;12.21;100.00;98800.63;5089000;28;20198;-70
2021/12/28 11:01:07;;;;;;;19.23;13.40;;;;;;;12.33;100.00;98805.19;5088230;28;20199;-70
2021/12/28 11:03:36;;;;;;;20.73;14.87;;;;;;;12.39;100.00;98804.06;5090094;28;20235;-70
2021/12/28 11:06:09;;;;;;;22.57;14.37;;;;;;;12.42;100.00;98807.34;5091512;28;20199;-70
2021/12/28 11:08:38;;;;;;;20.70;13.97;;;;;;;12.43;100.00;98805.59;5088369;28;20722;-70
2021/12/28 11:11:08;;;;;;;18.27;13.90;;;;;;;12.43;100.00;98810.75;5091436;28;20283;-70
2021/12/28 11:13:36;;;;;;;15.63;13.60;;;;;;;12.43;100.00;98805.59;5087563;28;20207;-70
2021/12/28 11:16:06;;;;;;;15.23;13.67;;;;;;;12.46;100.00;98793.44;5091265;28;20212;-70
2021/12/28 11:18:35;;;;;;;17.70;14.47;;;;;;;12.56;100.00;98793.84;5090967;28;20252;-70
2021/12/28 11:21:11;;;;;;;19.17;14.87;;;;;;;12.52;100.00;98780.28;5089268;28;20202;-74